createdAt,value
2023-05-05T00:24:16.720Z,10.2
2023-05-05T00:39:40.005Z,10
2023-05-05T00:55:03.305Z,9.5
2023-05-05T01:10:26.620Z,9.2
2023-05-05T01:25:49.914Z,9.1
2023-05-05T01:41:13.208Z,8.8
2023-05-05T01:56:36.516Z,8.7
2023-05-05T02:11:59.809Z,8.8
2023-05-05T02:27:23.113Z,8.7
2023-05-05T02:42:46.424Z,8.4
2023-05-05T02:58:08.741Z,8.1
2023-05-05T03:13:31.983Z,7.7
2023-05-05T03:28:55.260Z,7.8
2023-05-05T03:44:18.505Z,7.7
2023-05-05T03:59:41.778Z,7.7
2023-05-05T04:15:05.027Z,7.8
2023-05-05T04:30:28.283Z,8.2
2023-05-05T04:45:51.550Z,8.8
2023-05-05T05:01:14.820Z,9.8
2023-05-05T05:16:38.082Z,11.2
2023-05-05T05:32:01.324Z,11.6
2023-05-05T05:47:24.585Z,12.5
2023-05-05T06:02:47.847Z,13.6
2023-05-05T06:18:10.123Z,13.8
2023-05-05T06:33:33.377Z,14.5
2023-05-05T06:48:56.635Z,15.4
2023-05-05T07:04:19.881Z,16.4
2023-05-05T07:19:43.140Z,17.2
2023-05-05T07:21:06.560Z,17.3
2023-05-05T07:22:29.964Z,17.4
2023-05-05T07:23:53.375Z,17.3
2023-05-05T07:25:16.780Z,17.5
2023-05-05T07:26:40.185Z,17.5
2023-05-05T07:28:03.601Z,17.7
2023-05-05T07:29:27.003Z,17.7
2023-05-05T07:30:50.412Z,17.9
2023-05-05T07:32:12.842Z,18
2023-05-05T07:33:36.241Z,18.1
2023-05-05T07:34:59.661Z,18.3
2023-05-05T07:36:23.059Z,18.4
2023-05-05T07:37:46.463Z,18.6
2023-05-05T07:39:09.865Z,18.6
2023-05-05T07:40:33.280Z,18.6
2023-05-05T07:41:56.692Z,18.6
2023-05-05T07:43:20.103Z,18.5
2023-05-05T07:44:43.505Z,18.5
2023-05-05T07:46:06.925Z,18.4
2023-05-05T07:47:30.323Z,18.5
2023-05-05T07:48:53.738Z,18.6
2023-05-05T07:50:16.184Z,18.5
2023-05-05T07:51:39.573Z,18.5
2023-05-05T07:53:02.977Z,18.7
2023-05-05T07:54:26.389Z,18.7
2023-05-05T07:55:49.807Z,18.9
2023-05-05T07:57:13.204Z,18.9
2023-05-05T07:58:36.617Z,18.9
2023-05-05T08:00:00.039Z,19
2023-05-05T08:01:23.439Z,19.1
2023-05-05T08:02:46.844Z,19.2
2023-05-05T08:04:10.253Z,19.2
2023-05-05T08:05:33.662Z,19.3
2023-05-05T08:06:57.078Z,19.2
2023-05-05T08:08:19.503Z,19.2
2023-05-05T08:09:42.897Z,19.3
2023-05-05T08:11:06.311Z,19.4
2023-05-05T08:12:29.730Z,19.5
2023-05-05T08:13:53.139Z,19.6
2023-05-05T08:15:16.541Z,19.8
2023-05-05T08:16:39.953Z,19.8
2023-05-05T08:18:03.350Z,20
2023-05-05T08:19:26.751Z,20.2
2023-05-05T08:20:50.172Z,20.4
2023-05-05T08:22:13.571Z,20.5
2023-05-05T08:23:36.980Z,20.6
2023-05-05T08:25:00.401Z,20.7
2023-05-05T08:26:22.820Z,20.7
2023-05-05T08:27:46.223Z,20.8
2023-05-05T08:29:09.631Z,20.8
2023-05-05T08:30:33.047Z,20.9
2023-05-05T08:31:56.449Z,20.9
2023-05-05T08:33:19.848Z,21
2023-05-05T08:34:43.257Z,21.1
2023-05-05T08:36:06.667Z,21.1
2023-05-05T08:37:30.082Z,21.2
2023-05-05T08:38:53.486Z,21.4
2023-05-05T08:40:16.905Z,21.5
2023-05-05T08:41:40.317Z,21.7
2023-05-05T08:43:03.706Z,21.9
2023-05-05T08:44:26.130Z,21.9
2023-05-05T08:45:49.540Z,22
2023-05-05T08:47:12.948Z,22.2
2023-05-05T08:48:36.379Z,22.2
2023-05-05T08:49:59.790Z,22.2
2023-05-05T08:51:23.191Z,22.3
2023-05-05T08:52:46.601Z,22.6
2023-05-05T08:54:10.002Z,23
2023-05-05T08:55:33.423Z,23.1
2023-05-05T08:56:56.832Z,22.9
2023-05-05T08:58:20.242Z,22.6
2023-05-05T08:59:43.639Z,22.5
2023-05-05T09:01:07.046Z,22.6
2023-05-05T09:02:29.490Z,22.7
2023-05-05T09:03:52.898Z,23
2023-05-05T09:05:16.293Z,23.2
2023-05-05T09:06:39.712Z,23
2023-05-05T09:08:03.116Z,22.5
2023-05-05T09:09:26.522Z,22.4
2023-05-05T09:10:49.916Z,22.1
2023-05-05T09:12:13.329Z,22.2
2023-05-05T09:13:36.734Z,22.5
2023-05-05T09:15:00.150Z,22.8
2023-05-05T09:16:23.545Z,23
2023-05-05T09:17:46.962Z,23.3
2023-05-05T09:19:10.380Z,23.7
2023-05-05T09:20:32.796Z,23.8
2023-05-05T09:21:56.205Z,23.9
2023-05-05T09:23:19.610Z,23.7
2023-05-05T09:24:43.016Z,23.7
2023-05-05T09:26:06.422Z,23.7
2023-05-05T09:27:29.823Z,24
2023-05-05T09:28:53.230Z,24.1
2023-05-05T09:30:16.652Z,23.9
2023-05-05T09:31:40.055Z,23.4
2023-05-05T09:33:03.455Z,22.8
2023-05-05T09:34:26.884Z,23.1
2023-05-05T09:35:50.291Z,23
2023-05-05T09:37:13.705Z,23
2023-05-05T09:38:36.120Z,23.2
2023-05-05T09:39:59.528Z,23.3
2023-05-05T09:41:22.931Z,23.7
2023-05-05T09:42:46.348Z,23.8
2023-05-05T09:44:09.752Z,24.2
2023-05-05T09:45:33.168Z,24.3
2023-05-05T09:46:56.567Z,24.5
2023-05-05T09:48:19.966Z,24.6
2023-05-05T09:49:43.394Z,24.8
2023-05-05T09:51:06.795Z,24.8
2023-05-05T09:52:30.194Z,24.5
2023-05-05T09:53:53.612Z,24.4
2023-05-05T09:55:17.026Z,24.2
2023-05-05T09:56:39.449Z,24.1
2023-05-05T09:58:02.840Z,24.2
2023-05-05T09:59:26.259Z,24.1
2023-05-05T10:00:49.655Z,24
2023-05-05T10:02:13.063Z,24.1
2023-05-05T10:03:36.477Z,24.1
2023-05-05T10:04:58.903Z,24.2
2023-05-05T10:06:22.326Z,24.2
2023-05-05T10:07:45.000Z,24.3
2023-05-05T10:09:09.129Z,24.4
2023-05-05T10:10:32.533Z,24.7
2023-05-05T10:11:55.940Z,24.7
2023-05-05T10:13:19.363Z,24.7
2023-05-05T10:14:42.772Z,24.9
2023-05-05T10:16:06.170Z,25.1
2023-05-05T10:17:29.583Z,25
2023-05-05T10:18:52.997Z,24.9
2023-05-05T10:20:16.407Z,24.9
2023-05-05T10:21:39.796Z,24.8
2023-05-05T10:23:02.237Z,24.3
2023-05-05T10:24:25.634Z,24.3
2023-05-05T10:25:49.054Z,24.2
2023-05-05T10:27:12.460Z,24.3
2023-05-05T10:28:35.875Z,24.3
2023-05-05T10:29:59.271Z,24.5
2023-05-05T10:31:22.679Z,24.4
2023-05-05T10:32:46.080Z,24.4
2023-05-05T10:34:09.502Z,24.4
2023-05-05T10:35:32.905Z,24.4
2023-05-05T10:36:56.318Z,24.5
2023-05-05T10:38:19.736Z,24.5
2023-05-05T10:39:43.138Z,24.7
2023-05-05T10:41:05.565Z,24.8
2023-05-05T10:42:28.979Z,24.9
2023-05-05T10:43:52.373Z,24.9
2023-05-05T10:45:15.780Z,24.6
2023-05-05T10:46:39.185Z,24.6
2023-05-05T10:48:02.610Z,24.7
2023-05-05T10:49:26.005Z,24.8
2023-05-05T10:50:49.428Z,24.9
2023-05-05T10:52:12.820Z,25.1
2023-05-05T10:53:36.248Z,24.8
2023-05-05T10:54:59.642Z,24.9
2023-05-05T10:56:23.068Z,24.9
2023-05-05T10:57:46.477Z,25.2
2023-05-05T10:59:08.909Z,25.4
2023-05-05T11:00:32.303Z,25.6
2023-05-05T11:01:55.707Z,25.7
2023-05-05T11:03:19.127Z,25.6
2023-05-05T11:04:42.541Z,25.6
2023-05-05T11:06:05.937Z,25.5
2023-05-05T11:07:29.356Z,25.4
2023-05-05T11:08:52.757Z,25
2023-05-05T11:10:16.165Z,24.9
2023-05-05T11:11:39.579Z,24.4
2023-05-05T11:14:26.399Z,24.2
2023-05-05T11:15:49.810Z,24.3
2023-05-05T11:17:12.225Z,24.2
2023-05-05T11:18:35.625Z,24.6
2023-05-05T11:19:59.033Z,24.9
2023-05-05T11:21:22.444Z,25.1
2023-05-05T11:22:45.869Z,25.2
2023-05-05T11:24:09.268Z,25
2023-05-05T11:25:32.675Z,24.7
2023-05-05T11:26:56.093Z,24.5
2023-05-05T11:28:19.501Z,24.4
2023-05-05T11:29:42.896Z,24.2
2023-05-05T11:31:06.304Z,24.2
2023-05-05T11:32:29.726Z,24.2
2023-05-05T11:33:53.138Z,24.2
2023-05-05T11:35:15.551Z,24.3
2023-05-05T11:36:38.968Z,24.5
2023-05-05T11:38:02.368Z,24.5
2023-05-05T11:39:25.766Z,24.5
2023-05-05T11:40:49.178Z,24.5
2023-05-05T11:42:12.602Z,24.3
2023-05-05T11:43:35.992Z,24.1
2023-05-05T11:44:59.410Z,24.3
2023-05-05T11:46:22.813Z,24.3
2023-05-05T11:47:46.218Z,24.5
2023-05-05T11:49:09.628Z,24.5
2023-05-05T11:50:33.044Z,24.6
2023-05-05T11:51:56.455Z,24.9
2023-05-05T11:53:18.875Z,25.3
2023-05-05T11:54:42.293Z,25.4
2023-05-05T11:56:05.708Z,25.4
2023-05-05T11:57:29.112Z,25.8
2023-05-05T11:58:52.526Z,26
2023-05-05T12:00:15.938Z,26
2023-05-05T12:01:39.354Z,26
2023-05-05T12:03:02.761Z,26
2023-05-05T12:04:26.163Z,25.7
2023-05-05T12:05:49.571Z,25.5
2023-05-05T12:07:12.981Z,25.1
2023-05-05T12:08:36.393Z,24.7
2023-05-05T12:09:59.806Z,24.5
2023-05-05T12:11:22.243Z,24.2
2023-05-05T12:12:45.646Z,24
2023-05-05T12:14:09.055Z,24
2023-05-05T12:15:32.458Z,23.8
2023-05-05T12:16:55.872Z,23.8
2023-05-05T12:18:19.277Z,23.9
2023-05-05T12:19:42.679Z,23.8
2023-05-05T12:21:06.101Z,23.9
2023-05-05T12:22:29.501Z,24
2023-05-05T12:23:52.918Z,24.1
2023-05-05T12:25:16.321Z,24.2
2023-05-05T12:26:39.747Z,24.2
2023-05-05T12:28:03.154Z,24.2
2023-05-05T12:29:25.568Z,24.3
2023-05-05T12:30:48.971Z,24.2
2023-05-05T12:32:12.387Z,24.2
2023-05-05T12:33:35.798Z,24.3
2023-05-05T12:34:59.213Z,24.3
2023-05-05T12:36:22.620Z,24.4
2023-05-05T12:37:46.028Z,24.6
2023-05-05T12:39:09.431Z,24.6
2023-05-05T12:40:32.834Z,24.8
2023-05-05T12:41:56.244Z,25
2023-05-05T12:43:19.653Z,25.1
2023-05-05T12:44:43.057Z,25.1
2023-05-05T12:46:06.472Z,25.1
2023-05-05T12:47:28.895Z,25
2023-05-05T12:48:52.301Z,24.9
2023-05-05T12:50:15.707Z,24.6
2023-05-05T12:51:39.126Z,24.4
2023-05-05T12:53:02.543Z,24.3
2023-05-05T12:54:25.932Z,24.3
2023-05-05T12:55:49.344Z,24.2
2023-05-05T12:57:12.764Z,24.3
2023-05-05T12:58:36.168Z,24.3
2023-05-05T12:59:59.568Z,24.5
2023-05-05T13:01:22.980Z,24.8
2023-05-05T13:02:46.393Z,24.8
2023-05-05T13:04:09.816Z,24.8
2023-05-05T13:05:32.242Z,25
2023-05-05T13:06:55.639Z,25
2023-05-05T13:08:19.056Z,24.9
2023-05-05T13:09:42.462Z,24.8
2023-05-05T13:11:05.867Z,24.9
2023-05-05T13:12:29.266Z,24.9
2023-05-05T13:13:52.695Z,25.2
2023-05-05T13:15:16.098Z,25.2
2023-05-05T13:16:39.505Z,25.2
2023-05-05T13:18:02.912Z,25.2
2023-05-05T13:19:26.322Z,25.5
2023-05-05T13:20:49.724Z,25.8
2023-05-05T13:22:13.137Z,25.9
2023-05-05T13:23:35.551Z,26.2
2023-05-05T13:24:58.961Z,26.3
2023-05-05T13:26:22.383Z,26
2023-05-05T13:27:45.791Z,25.8
2023-05-05T13:29:09.204Z,26.1
2023-05-05T13:30:32.611Z,26.3
2023-05-05T13:31:56.026Z,26.4
2023-05-05T13:33:19.426Z,26.1
2023-05-05T13:34:42.842Z,25.9
2023-05-05T13:36:06.241Z,25.6
2023-05-05T13:37:29.665Z,25.5
2023-05-05T13:38:53.070Z,25.5
2023-05-05T13:40:16.469Z,25.3
2023-05-05T13:41:38.904Z,25
2023-05-05T13:43:02.314Z,24.6
2023-05-05T13:44:25.709Z,24.4
2023-05-05T13:45:49.117Z,24.3
2023-05-05T13:47:12.547Z,24
2023-05-05T13:48:35.943Z,23.8
2023-05-05T13:49:59.361Z,23.7
2023-05-05T13:51:22.773Z,23.5
2023-05-05T13:52:46.183Z,23.5
2023-05-05T13:54:09.580Z,23.3
2023-05-05T13:55:33.003Z,23.3
2023-05-05T13:56:56.406Z,23.3
2023-05-05T13:58:19.822Z,23.4
2023-05-05T13:59:42.254Z,23.4
2023-05-05T14:01:05.651Z,23.4
2023-05-05T14:02:29.056Z,23.4
2023-05-05T14:03:52.463Z,23.5
2023-05-05T14:05:15.880Z,23.5
2023-05-05T14:06:39.280Z,23.5
2023-05-05T14:08:02.705Z,23.6
2023-05-05T14:09:26.109Z,23.6
2023-05-05T14:10:49.530Z,23.7
2023-05-05T14:12:12.935Z,23.8
2023-05-05T14:13:36.326Z,23.8
2023-05-05T14:14:59.730Z,23.7
2023-05-05T14:16:23.151Z,23.7
2023-05-05T14:17:45.583Z,23.6
2023-05-05T14:19:08.983Z,23.5
2023-05-05T14:20:32.389Z,23.6
2023-05-05T14:21:55.809Z,23.6
2023-05-05T14:23:19.219Z,23.7
2023-05-05T14:24:42.629Z,23.8
2023-05-05T14:26:06.027Z,23.8
2023-05-05T14:27:29.430Z,23.7
2023-05-05T14:28:52.850Z,23.6
2023-05-05T14:30:16.260Z,23.6
2023-05-05T14:31:39.661Z,23.8
2023-05-05T14:33:03.066Z,23.8
2023-05-05T14:34:26.480Z,23.9
2023-05-05T14:35:48.905Z,23.9
2023-05-05T14:37:12.321Z,23.9
2023-05-05T14:38:35.720Z,23.8
2023-05-05T14:39:59.140Z,23.6
2023-05-05T14:41:22.542Z,23.7
2023-05-05T14:42:45.942Z,23.6
2023-05-05T14:44:08.389Z,23.5
2023-05-05T14:45:31.791Z,23.4
2023-05-05T14:46:55.205Z,23.3
2023-05-05T14:48:18.610Z,23.2
2023-05-05T14:49:42.008Z,23.2
2023-05-05T14:51:05.425Z,23.2
2023-05-05T14:52:28.840Z,23.2
2023-05-05T14:53:52.234Z,23.2
2023-05-05T14:55:15.654Z,23.1
2023-05-05T14:56:39.055Z,23.2
2023-05-05T14:58:02.468Z,23.1
2023-05-05T14:59:25.864Z,23.1
2023-05-05T15:00:49.272Z,23.1
2023-05-05T15:02:11.699Z,23.2
2023-05-05T15:03:35.119Z,23.2
2023-05-05T15:04:58.538Z,23.2
2023-05-05T15:06:21.948Z,23.3
2023-05-05T15:07:45.335Z,23.2
2023-05-05T15:09:08.756Z,23.2
2023-05-05T15:10:32.170Z,23.1
2023-05-05T15:11:55.574Z,23.1
2023-05-05T15:13:18.991Z,23.1
2023-05-05T15:14:42.404Z,23.2
2023-05-05T15:16:05.809Z,23.1
2023-05-05T15:17:29.228Z,23.1
2023-05-05T15:18:52.621Z,23.2
2023-05-05T15:20:15.050Z,23.1
2023-05-05T15:21:38.462Z,23.2
2023-05-05T15:23:01.870Z,23.2
2023-05-05T15:24:25.271Z,23.1
2023-05-05T15:25:48.692Z,23.1
2023-05-05T15:27:12.095Z,23.1
2023-05-05T15:28:35.514Z,23
2023-05-05T15:29:58.919Z,23
2023-05-05T15:31:22.327Z,23.1
2023-05-05T15:32:45.726Z,22.9
2023-05-05T15:34:09.141Z,22.9
2023-05-05T15:35:32.558Z,22.8
2023-05-05T15:36:55.968Z,22.8
2023-05-05T15:38:18.383Z,22.8
2023-05-05T15:39:41.791Z,22.8
2023-05-05T15:41:05.217Z,22.8
2023-05-05T15:42:28.620Z,22.8
2023-05-05T15:43:52.021Z,22.7
2023-05-05T15:45:15.439Z,22.6
2023-05-05T15:46:38.844Z,22.6
2023-05-05T15:48:02.244Z,22.5
2023-05-05T15:49:25.646Z,22.6
2023-05-05T15:50:49.053Z,22.6
2023-05-05T15:52:12.471Z,22.5
2023-05-05T15:53:35.871Z,22.5
2023-05-05T15:54:59.297Z,22.5
2023-05-05T15:56:21.712Z,22.4
2023-05-05T15:57:45.122Z,22.4
2023-05-05T15:59:08.538Z,22.4
2023-05-05T16:00:31.937Z,22.3
2023-05-05T16:01:55.353Z,22.3
2023-05-05T16:03:18.767Z,22.2
2023-05-05T16:04:42.165Z,22.2
2023-05-05T16:06:05.590Z,22.2
2023-05-05T16:07:28.994Z,22.2
2023-05-05T16:08:52.407Z,22.1
2023-05-05T16:10:15.796Z,22.1
2023-05-05T16:11:39.221Z,22.1
2023-05-05T16:13:02.613Z,22
2023-05-05T16:14:25.051Z,22
2023-05-05T16:15:48.443Z,22
2023-05-05T16:17:11.851Z,22
2023-05-05T16:18:35.273Z,22
2023-05-05T16:19:58.680Z,22
2023-05-05T16:21:22.083Z,21.9
2023-05-05T16:22:45.490Z,21.9
2023-05-05T16:24:08.902Z,21.9
2023-05-05T16:25:32.300Z,21.9
2023-05-05T16:26:55.712Z,21.8
2023-05-05T16:28:19.125Z,21.9
2023-05-05T16:29:42.538Z,21.8
2023-05-05T16:31:05.954Z,21.8
2023-05-05T16:32:28.363Z,21.8
2023-05-05T16:33:51.780Z,21.7
2023-05-05T16:35:15.186Z,21.7
2023-05-05T16:36:38.584Z,21.7
2023-05-05T16:38:02.001Z,21.7
2023-05-05T16:39:25.397Z,21.7
2023-05-05T16:40:48.820Z,21.6
2023-05-05T16:42:12.232Z,21.6
2023-05-05T16:43:35.644Z,21.6
2023-05-05T16:44:59.049Z,21.6
2023-05-05T16:46:22.460Z,21.7
2023-05-05T16:47:45.852Z,21.6
2023-05-05T16:49:09.260Z,21.6
2023-05-05T16:50:31.704Z,21.6
2023-05-05T16:51:55.111Z,21.6
2023-05-05T16:53:18.512Z,21.6
2023-05-05T16:54:41.930Z,21.5
2023-05-05T16:56:05.346Z,21.5
2023-05-05T16:57:28.737Z,21.5
2023-05-05T16:58:52.161Z,21.5
2023-05-05T17:00:15.568Z,21.6
2023-05-05T17:01:38.992Z,21.5
2023-05-05T17:03:02.387Z,21.5
2023-05-05T17:04:25.800Z,21.4
2023-05-05T17:05:49.213Z,21.4
2023-05-05T17:07:12.615Z,21.4
2023-05-05T17:08:35.048Z,21.4
2023-05-05T17:09:58.454Z,21.3
2023-05-05T17:11:21.857Z,21.4
2023-05-05T17:12:45.261Z,21.4
2023-05-05T17:14:08.689Z,21.3
2023-05-05T17:15:32.086Z,21.3
2023-05-05T17:16:55.516Z,21.3
2023-05-05T17:18:18.922Z,21.3
2023-05-05T17:19:42.311Z,21.2
2023-05-05T17:21:05.735Z,21.2
2023-05-05T17:22:29.148Z,21.2
2023-05-05T17:23:52.544Z,21.2
2023-05-05T17:25:15.945Z,21.1
2023-05-05T17:26:38.366Z,21.1
2023-05-05T17:28:01.785Z,21.1
2023-05-05T17:29:25.198Z,21
2023-05-05T17:30:48.599Z,21
2023-05-05T17:32:12.017Z,21
2023-05-05T17:33:35.421Z,20.9
2023-05-05T17:34:58.833Z,21
2023-05-05T17:36:22.231Z,20.9
2023-05-05T17:37:45.646Z,20.9
2023-05-05T17:39:09.050Z,20.9
2023-05-05T17:40:32.459Z,20.8
2023-05-05T17:41:55.868Z,20.8
2023-05-05T17:43:19.279Z,20.7
2023-05-05T17:44:41.701Z,20.7
2023-05-05T17:46:05.104Z,20.7
2023-05-05T17:47:28.508Z,20.6
2023-05-05T17:48:51.928Z,20.5
2023-05-05T17:50:15.327Z,20.6
2023-05-05T17:51:38.741Z,20.5
2023-05-05T17:53:02.150Z,20.5
2023-05-05T17:54:25.557Z,20.4
2023-05-05T17:55:48.965Z,20.4
2023-05-05T17:57:12.374Z,20.3
2023-05-05T17:58:35.785Z,20.3
2023-05-05T17:59:59.198Z,20.3
2023-05-05T18:01:22.618Z,20.2
2023-05-05T18:02:45.031Z,20.2
2023-05-05T18:04:08.431Z,20.1
2023-05-05T18:05:31.844Z,20.1
2023-05-05T18:06:55.261Z,20.1
2023-05-05T18:08:18.668Z,20.1
2023-05-05T18:09:42.072Z,20
2023-05-05T18:11:05.491Z,20.1
2023-05-05T18:12:28.889Z,20
2023-05-05T18:13:52.294Z,20
2023-05-05T18:15:15.701Z,19.9
2023-05-05T18:16:39.104Z,19.7
2023-05-05T18:18:02.517Z,19.3
2023-05-05T18:19:25.932Z,18.8
2023-05-05T18:20:48.348Z,18.4
2023-05-05T18:22:11.754Z,18.1
2023-05-05T18:23:35.159Z,17.9
2023-05-05T18:24:58.582Z,17.7
2023-05-05T18:26:21.990Z,17.5
2023-05-05T18:27:45.408Z,17.3
2023-05-05T18:29:08.807Z,17.1
2023-05-05T18:30:32.209Z,16.9
2023-05-05T18:31:55.630Z,16.8
2023-05-05T18:33:19.031Z,16.8
2023-05-05T18:34:42.435Z,16.6
2023-05-05T18:36:05.857Z,16.6
2023-05-05T18:37:29.266Z,16.5
2023-05-05T18:38:51.691Z,16.2
2023-05-05T18:40:15.084Z,16.2
2023-05-05T18:41:38.499Z,16.2
2023-05-05T18:43:01.893Z,16.2
2023-05-05T18:44:25.303Z,16.2
2023-05-05T18:45:48.712Z,16.2
2023-05-05T18:47:12.121Z,16.2
2023-05-05T18:48:35.536Z,16.2
2023-05-05T18:49:58.939Z,16.2
2023-05-05T18:51:22.350Z,16.2
2023-05-05T18:52:45.762Z,16.2
2023-05-05T18:54:09.209Z,16.2
2023-05-05T18:55:32.619Z,16.2
2023-05-05T18:56:55.048Z,16.1
2023-05-05T18:58:18.454Z,16.1
2023-05-05T18:59:41.852Z,16.1
2023-05-05T19:01:05.315Z,16.1
2023-05-05T19:02:28.755Z,16.1
2023-05-05T19:03:52.211Z,16.1
2023-05-05T19:05:15.650Z,16
2023-05-05T19:06:39.098Z,16.1
2023-05-05T19:08:02.570Z,16
2023-05-05T19:09:26.009Z,16
2023-05-05T19:10:49.459Z,16
2023-05-05T19:12:12.908Z,16
2023-05-05T19:13:36.361Z,16
2023-05-05T19:14:58.819Z,16.1
2023-05-05T19:16:22.283Z,16
2023-05-05T19:17:45.744Z,16
2023-05-05T19:19:09.192Z,15.9
2023-05-05T19:20:32.644Z,16
2023-05-05T19:21:56.083Z,16.1
2023-05-05T19:23:18.546Z,15.9
2023-05-05T19:24:42.013Z,16
2023-05-05T19:26:05.447Z,16
2023-05-05T19:28:52.501Z,16
2023-05-05T19:30:15.952Z,16
2023-05-05T19:31:39.398Z,16
2023-05-05T19:33:02.841Z,15.9
2023-05-05T19:34:26.299Z,15.9
2023-05-05T19:35:49.758Z,15.9
2023-05-05T19:37:13.209Z,15.8
2023-05-05T19:38:36.658Z,15.8
2023-05-05T19:40:00.096Z,15.8
2023-05-05T19:41:22.568Z,15.7
2023-05-05T19:42:46.013Z,15.7
2023-05-05T19:44:09.475Z,15.7
2023-05-05T19:45:32.929Z,15.6
2023-05-05T19:46:56.387Z,15.5
2023-05-05T19:48:19.826Z,15.4
2023-05-05T19:49:43.277Z,15.5
2023-05-05T19:51:06.721Z,15.3
2023-05-05T19:52:30.167Z,15.3
2023-05-05T19:53:53.633Z,15.3
2023-05-05T19:55:17.076Z,15.2
2023-05-05T19:56:40.539Z,15.1
2023-05-05T19:58:03.978Z,15.1
2023-05-05T19:59:26.438Z,15.1
2023-05-05T20:00:49.892Z,15.1
2023-05-05T20:02:13.339Z,15.1
2023-05-05T20:03:36.792Z,15.1
2023-05-05T20:05:00.258Z,15.1
2023-05-05T20:06:23.709Z,15.1
2023-05-05T20:07:47.159Z,15
2023-05-05T20:09:10.617Z,15.2
2023-05-05T20:10:34.057Z,15.1
2023-05-05T20:11:57.504Z,15.1
2023-05-05T20:13:20.957Z,15
2023-05-05T20:14:44.401Z,15
2023-05-05T20:16:07.000Z,15.1
2023-05-05T20:31:30.171Z,14.9
2023-05-05T20:46:53.468Z,14.8
2023-05-05T21:02:16.769Z,14.6
2023-05-05T21:17:40.049Z,14.8
2023-05-05T21:33:03.351Z,14.6
2023-05-05T21:48:26.657Z,14.5
2023-05-05T22:03:49.956Z,14.4
2023-05-05T22:19:13.248Z,14.3
2023-05-05T22:34:36.546Z,14.1
2023-05-05T22:49:59.846Z,14.1
2023-05-05T23:05:23.140Z,14.2
2023-05-05T23:20:46.422Z,14.1
2023-05-05T23:36:09.000Z,13.9
2023-05-05T23:51:32.031Z,13.8
